Time;durP1;ratioP1;P1;durP2;ratioP2;P2;SDS_P1;SDS_P2;PMS_P1;PMS_P2;Temp;Humidity;BMP_temperature;BMP_pressure;BME280_temperature;BME280_humidity;BME280_pressure;Samples;Min_cycle;Max_cycle;Signal;HPM_P1;HPM_P2
2022/11/07 00:02:25;;;;;;;1.70;0.85;;;9.00;99.90;;;8.32;100.00;97144.91;4973925;28;20679;-50
2022/11/07 00:04:50;;;;;;;1.15;0.70;;;8.90;99.90;;;8.20;100.00;97143.56;4971510;28;20034;-48
2022/11/07 00:07:16;;;;;;;1.00;0.90;;;8.90;99.90;;;8.10;100.00;97134.25;4975120;28;20038;-52
2022/11/07 00:09:42;;;;;;;2.22;0.95;;;8.70;99.90;;;8.09;100.00;97143.00;4973818;28;20073;-48
2022/11/07 00:12:08;;;;;;;3.35;1.10;;;8.70;99.90;;;7.98;100.00;97134.63;4980762;28;20454;-49
2022/11/07 00:14:33;;;;;;;2.90;1.30;;;8.60;99.90;;;7.97;100.00;97159.19;4975108;28;20041;-47
2022/11/07 00:16:59;;;;;;;2.30;1.10;;;8.60;99.90;;;7.93;100.00;97160.16;4973064;28;20037;-48
2022/11/07 00:19:25;;;;;;;1.75;0.88;;;8.60;99.90;;;7.92;100.00;97168.94;4977732;28;20094;-50
2022/11/07 00:21:51;;;;;;;1.23;1.00;;;8.50;99.90;;;7.88;100.00;97167.31;4978447;28;20038;-50
2022/11/07 00:24:17;;;;;;;1.02;0.80;;;8.50;99.90;;;7.89;100.00;97164.63;4975174;28;20838;-48
2022/11/07 00:26:45;;;;;;;1.27;1.00;;;8.50;99.90;;;7.97;100.00;97167.06;4982818;28;20033;-50
2022/11/07 00:29:19;;;;;;;1.88;1.05;;;8.60;99.90;;;8.03;100.00;97170.34;4973316;28;20056;-47
2022/11/07 00:31:46;;;;;;;0.95;0.77;;;8.70;99.90;;;8.11;100.00;97170.13;4971166;28;20396;-50
2022/11/07 00:34:12;;;;;;;2.42;1.00;;;8.70;99.90;;;8.19;100.00;97173.34;4972689;28;20408;-49
2022/11/07 00:36:38;;;;;;;1.38;0.93;;;8.80;99.90;;;8.21;100.00;97182.03;4980429;28;20033;-47
2022/11/07 00:39:04;;;;;;;1.33;0.98;;;8.80;99.90;;;8.21;100.00;97183.81;4978401;28;20086;-48
2022/11/07 00:41:30;;;;;;;0.88;0.80;;;8.80;99.90;;;8.22;100.00;97175.88;4980692;28;20038;-49
2022/11/07 00:43:56;;;;;;;0.80;0.80;;;8.90;99.90;;;8.32;100.00;97183.47;4981355;28;20560;-49
2022/11/07 00:46:22;;;;;;;1.00;0.73;;;8.90;99.90;;;8.39;100.00;97179.75;4975586;28;20021;-47
2022/11/07 00:48:48;;;;;;;1.42;0.70;;;9.00;99.90;;;8.46;100.00;97180.47;4981390;28;20030;-48
2022/11/07 00:51:18;;;;;;;2.60;0.70;;;9.10;99.90;;;8.51;100.00;97189.91;4983939;28;20311;-49
2022/11/07 00:53:45;;;;;;;1.13;0.82;;;9.10;99.90;;;8.56;100.00;97195.00;4980330;28;20162;-46
2022/11/07 00:56:16;;;;;;;1.35;1.05;;;9.20;99.90;;;8.64;100.00;97194.78;4979638;28;20041;-49
2022/11/07 00:58:43;;;;;;;2.08;0.70;;;9.30;99.90;;;8.71;100.00;97196.28;4986184;28;20401;-50
2022/11/07 01:01:16;;;;;;;1.42;0.95;;;9.30;99.90;;;8.71;100.00;97191.88;4979054;28;20041;-48
2022/11/07 01:06:29;;;;;;;1.00;0.77;;;9.30;99.90;;;8.52;100.00;97178.47;4983084;28;20041;-48
2022/11/07 01:08:55;;;;;;;1.35;0.85;;;9.30;99.90;;;8.56;100.00;97187.13;4980008;28;20060;-48
2022/11/07 01:11:24;;;;;;;0.88;0.70;;;9.20;99.90;;;8.48;100.00;97190.00;4985384;28;20325;-49
2022/11/07 01:13:54;;;;;;;1.23;0.80;;;9.10;99.90;;;8.36;100.00;97188.59;4972109;28;20901;-48
2022/11/07 01:18:53;;;;;;;0.75;0.70;;;8.90;99.90;;;8.19;100.00;97180.38;5003278;28;21956;-62
2022/11/07 01:21:19;;;;;;;1.48;0.82;;;8.80;99.90;;;8.16;100.00;97181.31;5010589;28;20200;-62
2022/11/07 01:23:45;;;;;;;1.80;0.73;;;8.80;99.90;;;8.12;100.00;97182.31;5008027;28;20046;-61
2022/11/07 01:26:12;;;;;;;2.22;0.80;;;8.70;99.90;;;8.05;100.00;97175.53;5004935;28;20032;-62
2022/11/07 01:28:39;;;;;;;1.55;0.80;;;8.70;99.90;;;8.16;100.00;97191.81;5009844;28;20025;-61
2022/11/07 01:31:10;;;;;;;0.90;0.75;;;8.70;99.90;;;8.11;100.00;97171.88;4998751;28;20029;-61
2022/11/07 01:33:37;;;;;;;1.90;0.93;;;8.80;99.90;;;8.14;100.00;97177.88;5016797;28;20036;-61
2022/11/07 01:36:10;;;;;;;1.58;0.80;;;8.80;99.90;;;8.12;100.00;97190.22;5010320;28;20069;-62
2022/11/07 01:38:42;;;;;;;2.17;0.82;;;8.70;99.90;;;8.08;100.00;97182.50;5010140;28;20025;-61
2022/11/07 01:41:20;;;;;;;3.15;0.90;;;8.70;99.90;;;8.07;100.00;97183.38;5007690;28;20040;-61
2022/11/07 01:44:09;;;;;;;1.77;1.00;;;8.70;99.90;;;8.01;100.00;97184.44;5016057;28;20033;-62
2022/11/07 01:46:40;;;;;;;0.82;0.80;;;8.60;99.90;;;7.99;100.00;97186.25;4985888;28;20046;-62
2022/11/07 01:49:38;;;;;;;2.35;0.77;;;8.60;99.90;;;7.98;100.00;97188.00;5021456;28;20021;-61
2022/11/07 01:52:16;;;;;;;0.80;0.63;;;8.60;99.90;;;7.95;100.00;97182.84;5006167;28;20052;-62
2022/11/07 01:54:59;;;;;;;1.33;0.70;;;8.60;99.90;;;7.87;100.00;97182.22;5003042;28;20045;-61
2022/11/07 01:57:41;;;;;;;1.20;0.82;;;8.50;99.90;;;7.84;100.00;97187.53;5014512;28;20903;-61
2022/11/07 02:00:11;;;;;;;1.23;0.80;;;8.50;99.90;;;7.73;100.00;97179.13;5022573;28;20033;-62
2022/11/07 02:02:38;;;;;;;1.30;0.80;;;8.40;99.90;;;7.87;100.00;97189.22;5017786;28;20554;-61
2022/11/07 02:05:06;;;;;;;0.75;0.63;;;8.50;99.90;;;7.92;100.00;97193.44;4996632;28;20048;-62
2022/11/07 02:07:32;;;;;;;2.80;1.00;;;8.50;99.90;;;7.97;100.00;97193.31;5020226;28;20026;-61
2022/11/07 02:09:58;;;;;;;2.70;1.15;;;8.60;99.90;;;8.02;100.00;97186.13;5019958;28;20063;-61
2022/11/07 02:12:27;;;;;;;1.17;1.05;;;8.60;99.90;;;8.02;100.00;97187.00;5020641;28;20033;-62
2022/11/07 02:14:54;;;;;;;2.63;1.20;;;8.60;99.90;;;7.98;100.00;97189.75;5012173;28;20040;-62
2022/11/07 02:17:20;;;;;;;2.33;0.77;;;8.60;99.90;;;8.02;100.00;97189.63;5010431;28;20049;-62
2022/11/07 02:19:50;;;;;;;1.33;0.80;;;8.70;99.90;;;8.07;100.00;97186.00;5013298;28;20022;-61
2022/11/07 02:22:40;;;;;;;1.48;0.95;;;8.70;99.90;;;8.12;100.00;97195.47;5010999;28;20041;-62
2022/11/07 02:25:11;;;;;;;2.30;0.90;;;8.70;99.90;;;8.15;100.00;97190.13;4970864;28;20132;-62
2022/11/07 02:27:39;;;;;;;1.08;0.80;;;8.80;99.90;;;8.22;100.00;97194.28;5004043;28;20032;-62
2022/11/07 02:30:14;;;;;;;4.65;0.90;;;8.80;99.90;;;8.30;100.00;97201.06;5013013;28;20026;-62
2022/11/07 02:32:39;;;;;;;3.15;1.05;;;8.90;99.90;;;8.37;100.00;97200.81;4995698;28;20140;-62
2022/11/07 02:35:34;;;;;;;1.45;0.95;;;9.00;99.90;;;8.43;100.00;97191.91;5010425;28;20290;-61
2022/11/07 02:38:02;;;;;;;2.38;0.85;;;9.00;99.90;;;8.49;100.00;97191.72;5008522;28;20033;-61
2022/11/07 02:44:11;;;;;;;1.70;0.90;;;9.20;99.90;;;8.62;100.00;97186.09;5005266;28;20981;-61
2022/11/07 02:46:37;;;;;;;1.73;1.10;;;9.20;99.90;;;8.61;100.00;97177.31;4985615;28;20026;-62
2022/11/07 02:49:03;;;;;;;3.33;1.00;;;9.30;99.90;;;8.71;100.00;97188.41;5020884;28;20136;-62
2022/11/07 02:51:29;;;;;;;1.00;0.88;;;9.30;99.90;;;8.76;100.00;97189.97;5016629;28;20025;-62
2022/11/07 02:53:54;;;;;;;3.28;1.15;;;9.40;99.90;;;8.82;100.00;97186.28;5012206;28;20061;-62
2022/11/07 02:56:21;;;;;;;1.30;0.90;;;9.40;99.90;;;8.87;100.00;97186.97;5000879;28;20075;-61
2022/11/07 02:58:47;;;;;;;2.45;1.15;;;9.50;99.90;;;8.91;100.00;97188.59;5012615;28;20033;-62
2022/11/07 03:01:14;;;;;;;3.92;1.05;;;9.50;99.90;;;8.93;100.00;97180.66;5018591;28;20036;-62
2022/11/07 03:03:45;;;;;;;1.15;0.82;;;9.50;99.90;;;8.97;100.00;97182.25;5010828;28;20051;-62
2022/11/07 03:06:15;;;;;;;1.48;0.93;;;9.60;99.90;;;9.01;100.00;97185.66;5019615;28;20059;-62
2022/11/07 03:08:42;;;;;;;1.25;0.90;;;9.60;99.90;;;9.03;100.00;97187.31;5018609;28;20324;-61
2022/11/07 03:11:08;;;;;;;1.95;0.90;;;9.60;99.90;;;9.04;100.00;97181.13;5019337;28;20025;-62
2022/11/07 03:13:34;;;;;;;2.17;1.10;;;9.70;99.90;;;9.07;100.00;97183.66;5005622;28;20124;-62
2022/11/07 03:16:05;;;;;;;2.35;0.90;;;9.70;99.90;;;9.14;100.00;97182.53;5016239;28;20516;-62
2022/11/07 03:18:31;;;;;;;2.60;1.02;;;9.70;99.90;;;9.19;100.00;97190.28;5012482;28;20037;-62
2022/11/07 03:20:57;;;;;;;1.75;0.88;;;9.80;99.90;;;9.23;100.00;97188.41;5016164;28;20044;-62
2022/11/07 03:23:23;;;;;;;1.67;1.00;;;9.80;99.90;;;9.27;100.00;97184.75;5010763;28;20033;-62
2022/11/07 03:25:48;;;;;;;2.28;1.00;;;9.90;99.90;;;9.30;100.00;97182.03;5016501;28;20451;-62
2022/11/07 03:28:14;;;;;;;3.38;0.82;;;9.90;99.90;;;9.32;100.00;97182.81;5018100;28;20053;-61
2022/11/07 03:30:40;;;;;;;2.70;1.00;;;9.90;99.90;;;9.35;100.00;97193.25;5012645;28;20054;-62
2022/11/07 03:33:05;;;;;;;1.27;0.90;;;10.00;99.90;;;9.38;100.00;97187.00;5010634;28;20068;-62
2022/11/07 03:35:31;;;;;;;2.03;1.00;;;10.00;99.90;;;9.42;100.00;97193.88;5012309;28;20088;-62
2022/11/07 03:37:57;;;;;;;1.20;0.95;;;10.00;99.90;;;9.42;100.00;97193.88;5013425;28;20041;-62
2022/11/07 03:40:23;;;;;;;3.35;0.90;;;10.00;99.90;;;9.43;100.00;97199.09;5010636;28;20034;-62
2022/11/07 03:42:48;;;;;;;1.50;0.95;;;10.00;99.90;;;9.45;100.00;97202.53;5009626;28;20671;-62
2022/11/07 03:45:15;;;;;;;1.20;0.90;;;10.00;99.90;;;9.45;100.00;97193.78;5015863;28;20032;-62
2022/11/07 03:47:43;;;;;;;1.52;0.90;;;10.10;99.90;;;9.46;100.00;97201.63;5007099;28;20036;-64
2022/11/07 03:50:13;;;;;;;2.08;1.08;;;10.10;99.90;;;9.46;100.00;97198.97;5016563;28;20021;-63
2022/11/07 03:52:39;;;;;;;3.17;1.17;;;10.10;99.90;;;9.39;100.00;97194.00;5008611;28;20048;-62
2022/11/07 03:55:05;;;;;;;2.08;1.20;;;10.00;99.90;;;9.38;100.00;97195.75;4995000;28;20033;-63
2022/11/07 03:57:31;;;;;;;1.40;0.90;;;10.00;99.90;;;9.30;100.00;97197.81;4994040;28;20036;-64
2022/11/07 03:59:57;;;;;;;3.13;1.02;;;9.90;99.90;;;9.24;100.00;97204.16;5014030;28;20037;-64
2022/11/07 04:02:23;;;;;;;2.33;0.95;;;9.80;99.90;;;9.17;100.00;97200.00;5010712;28;20909;-63
2022/11/07 04:04:49;;;;;;;1.92;0.93;;;9.80;99.90;;;9.10;100.00;97203.78;5014623;28;20155;-63
2022/11/07 04:07:15;;;;;;;2.13;0.88;;;9.70;99.90;;;9.03;100.00;97218.91;5010540;28;20033;-64
2022/11/07 04:09:40;;;;;;;1.90;0.82;;;9.60;99.90;;;8.95;100.00;97213.03;5014581;28;20044;-63
2022/11/07 04:17:36;;;;;;;1.23;0.80;;;9.50;99.90;;;8.88;100.00;97225.53;5013053;28;20128;-63
2022/11/07 04:20:03;;;;;;;1.25;0.80;;;9.50;99.90;;;8.84;100.00;97218.63;5016406;28;20425;-64
2022/11/07 04:22:29;;;;;;;2.28;0.80;;;9.40;99.90;;;8.81;100.00;97224.00;4996339;28;20322;-64
2022/11/07 04:24:55;;;;;;;2.38;1.27;;;9.40;99.90;;;8.76;100.00;97231.19;5018647;28;20493;-63
2022/11/07 04:30:18;;;;;;;2.30;0.93;;;9.30;99.90;;;8.70;100.00;97232.22;5009799;28;21367;-63
2022/11/07 04:32:52;;;;;;;2.97;0.95;;;9.30;99.90;;;8.71;100.00;97226.06;5006319;28;20570;-64
2022/11/07 04:35:21;;;;;;;1.45;0.90;;;9.30;99.90;;;8.55;100.00;97190.66;5019868;28;20409;-63
2022/11/07 04:37:47;;;;;;;1.77;0.93;;;9.30;99.90;;;8.73;100.00;97231.28;5021306;28;20563;-64
2022/11/07 04:40:14;;;;;;;1.77;0.82;;;9.30;99.90;;;8.74;100.00;97235.63;5015566;28;20029;-64
2022/11/07 04:42:40;;;;;;;1.75;0.80;;;9.30;99.90;;;8.74;100.00;97238.25;5017210;28;20770;-64
2022/11/07 04:45:07;;;;;;;1.70;0.80;;;9.30;99.90;;;8.68;100.00;97233.19;5021655;28;20040;-64
2022/11/07 04:47:33;;;;;;;1.88;0.90;;;9.20;99.90;;;8.65;100.00;97231.53;5020934;28;20056;-64
2022/11/07 04:49:58;;;;;;;1.88;1.00;;;9.20;99.90;;;8.59;100.00;97224.69;5017737;28;20548;-64
2022/11/07 04:52:24;;;;;;;1.98;0.70;;;9.10;99.90;;;8.53;100.00;97240.66;5014923;28;20501;-63
2022/11/07 04:54:50;;;;;;;1.20;0.80;;;9.10;99.90;;;8.37;100.00;97234.97;5016779;28;20030;-64
2022/11/07 04:57:15;;;;;;;3.47;1.15;;;9.00;99.90;;;8.38;100.00;97243.72;5015065;28;20045;-64
2022/11/07 04:59:41;;;;;;;1.92;0.80;;;9.00;99.90;;;8.36;100.00;97249.03;5017525;28;20567;-63
2022/11/07 05:02:11;;;;;;;2.88;0.85;;;8.90;99.90;;;8.37;100.00;97247.25;5013908;28;20187;-63
2022/11/07 05:04:38;;;;;;;3.05;1.00;;;8.90;99.90;;;8.38;100.00;97246.34;5016608;28;21268;-64
2022/11/07 05:07:04;;;;;;;1.35;0.93;;;8.90;99.90;;;8.35;100.00;97249.09;5021706;28;20032;-63
2022/11/07 05:09:30;;;;;;;2.20;0.95;;;8.90;99.90;;;8.31;100.00;97240.44;5016211;28;20474;-64
2022/11/07 05:11:55;;;;;;;1.88;1.00;;;8.90;99.90;;;8.22;100.00;97236.31;5021174;28;20084;-65
2022/11/07 05:14:21;;;;;;;2.08;1.00;;;8.80;99.90;;;8.13;100.00;97244.47;5021369;28;20068;-64
2022/11/07 05:16:49;;;;;;;2.15;1.20;;;8.70;99.90;;;8.06;100.00;97249.94;5018952;28;20152;-64
2022/11/07 05:19:17;;;;;;;2.97;1.00;;;8.60;99.90;;;7.98;100.00;97252.78;5018522;28;20038;-64
2022/11/07 05:21:44;;;;;;;1.85;1.17;;;8.60;99.90;;;7.92;100.00;97256.47;5004825;28;20057;-65
2022/11/07 05:24:11;;;;;;;5.30;1.20;;;8.50;99.90;;;7.87;100.00;97247.84;5011578;28;20033;-65
2022/11/07 05:26:37;;;;;;;2.17;0.95;;;8.50;99.90;;;7.81;100.00;97243.63;5000353;28;20406;-64
2022/11/07 05:29:04;;;;;;;1.10;0.85;;;8.40;99.90;;;7.79;100.00;97255.94;5022564;28;20034;-65
2022/11/07 05:31:29;;;;;;;2.67;0.73;;;8.40;99.90;;;7.75;100.00;97248.19;5010846;28;20230;-65
2022/11/07 05:33:55;;;;;;;1.90;0.98;;;8.40;99.90;;;7.70;100.00;97239.56;5020211;28;20029;-66
2022/11/07 05:36:23;;;;;;;2.22;0.98;;;8.30;99.90;;;7.68;100.00;97251.88;5015627;28;20064;-66
2022/11/07 05:38:51;;;;;;;2.22;0.93;;;8.30;99.90;;;7.62;100.00;97255.53;5023856;28;20028;-66
2022/11/07 05:41:19;;;;;;;2.10;0.90;;;8.20;99.90;;;7.62;100.00;97260.78;5017137;28;20045;-66
2022/11/07 05:43:46;;;;;;;4.18;0.80;;;8.20;99.90;;;7.63;100.00;97258.13;4989440;28;20061;-66
2022/11/07 05:46:13;;;;;;;1.40;0.93;;;8.20;99.90;;;7.64;100.00;97254.63;4979780;28;20730;-66
2022/11/07 05:48:39;;;;;;;4.68;0.95;;;8.20;99.90;;;7.66;100.00;97259.81;5009858;28;20044;-66
2022/11/07 05:51:07;;;;;;;1.33;0.95;;;8.20;99.90;;;7.67;100.00;97263.31;5005769;28;20500;-66
2022/11/07 05:53:33;;;;;;;1.38;0.80;;;8.30;99.90;;;7.68;100.00;97254.50;5003018;28;20437;-66
2022/11/07 05:55:58;;;;;;;2.53;1.13;;;8.30;99.90;;;7.51;100.00;97229.59;5014669;28;20041;-66
2022/11/07 05:58:24;;;;;;;1.73;0.93;;;8.30;99.90;;;7.69;100.00;97262.34;5007937;28;20042;-66
2022/11/07 06:00:50;;;;;;;2.25;1.08;;;8.30;99.90;;;7.72;100.00;97267.53;5010508;28;20559;-65
2022/11/07 06:03:18;;;;;;;2.13;1.05;;;8.30;99.90;;;7.76;100.00;97263.06;5019628;28;20071;-66
2022/11/07 06:05:44;;;;;;;2.95;1.30;;;8.40;99.90;;;7.78;100.00;97271.75;5013172;28;20036;-66
2022/11/07 06:08:12;;;;;;;1.95;1.00;;;8.40;99.90;;;7.81;100.00;97269.03;5015717;28;20017;-66
2022/11/07 06:10:40;;;;;;;1.35;0.75;;;8.40;99.90;;;7.86;100.00;97268.88;5013740;28;20029;-67
2022/11/07 06:13:13;;;;;;;2.42;1.20;;;8.50;99.90;;;7.96;100.00;97275.63;5014853;28;20580;-68
2022/11/07 06:15:39;;;;;;;1.70;1.10;;;8.60;99.90;;;8.05;100.00;97266.63;4990917;28;20444;-68
2022/11/07 06:18:07;;;;;;;2.13;1.10;;;8.60;99.90;;;8.08;100.00;97264.75;5015418;28;20037;-68
2022/11/07 06:20:34;;;;;;;1.38;0.80;;;8.70;99.90;;;8.14;100.00;97258.47;4980529;28;20128;-67
2022/11/07 06:23:02;;;;;;;2.10;0.98;;;8.70;99.90;;;8.20;100.00;97267.03;4999978;28;20025;-66
2022/11/07 06:25:28;;;;;;;2.08;0.90;;;8.80;99.90;;;8.28;100.00;97261.53;5006861;28;20558;-66
2022/11/07 06:28:00;;;;;;;3.03;1.17;;;8.90;99.90;;;8.36;100.00;97263.94;5006236;28;20476;-67
2022/11/07 06:30:27;;;;;;;2.53;1.10;;;9.00;99.90;;;8.47;100.00;97272.41;5011468;28;20472;-67
2022/11/07 06:32:53;;;;;;;4.13;1.10;;;9.10;99.90;;;8.57;100.00;97271.19;5002934;28;20232;-67
2022/11/07 06:35:18;;;;;;;1.98;0.90;;;9.20;99.90;;;8.58;100.00;97248.41;4998344;28;20055;-66
2022/11/07 06:37:44;;;;;;;2.55;1.27;;;9.30;99.90;;;8.74;100.00;97273.31;5010856;28;20068;-67
2022/11/07 06:40:10;;;;;;;2.50;0.95;;;9.40;99.90;;;8.82;100.00;97259.06;5010786;28;20033;-66
2022/11/07 06:42:36;;;;;;;3.58;1.02;;;9.40;99.90;;;8.93;100.00;97268.28;5000983;28;20115;-66
2022/11/07 06:45:03;;;;;;;2.28;1.20;;;9.50;99.90;;;9.01;100.00;97261.94;5015742;28;20045;-67
2022/11/07 06:47:28;;;;;;;5.03;1.55;;;9.60;99.90;;;9.13;100.00;97266.78;5014723;28;20040;-66
2022/11/07 06:49:54;;;;;;;1.65;0.93;;;9.70;99.90;;;9.20;100.00;97263.03;5003958;28;20044;-66
2022/11/07 06:52:20;;;;;;;3.53;1.08;;;9.80;99.90;;;9.26;100.00;97272.50;5016397;28;20036;-65
2022/11/07 06:54:46;;;;;;;4.50;1.27;;;9.90;99.90;;;9.28;100.00;97270.69;5014372;28;20199;-65
2022/11/07 06:57:11;;;;;;;2.80;1.17;;;9.90;99.90;;;9.27;100.00;97279.50;5024291;28;20126;-65
2022/11/07 06:59:37;;;;;;;2.05;1.13;;;9.90;99.90;;;9.27;100.00;97284.75;5012878;28;20063;-65
2022/11/07 07:02:03;;;;;;;4.07;1.30;;;9.90;99.90;;;9.25;100.00;97282.16;5001037;28;20021;-65
2022/11/07 07:04:28;;;;;;;2.10;1.00;;;9.80;99.90;;;9.26;100.00;97293.53;5014077;28;20029;-65
2022/11/07 07:06:54;;;;;;;6.25;1.15;;;9.80;99.90;;;9.28;100.00;97289.13;5015665;28;20044;-64
2022/11/07 07:09:20;;;;;;;0.98;0.82;;;9.90;99.90;;;9.32;100.00;97294.22;5018557;28;20166;-64
2022/11/07 07:11:47;;;;;;;1.90;1.10;;;9.90;99.90;;;9.33;100.00;97301.22;5016732;28;20037;-65
2022/11/07 07:14:12;;;;;;;2.75;1.05;;;9.90;99.90;;;9.38;100.00;97300.19;5018325;28;20037;-64
2022/11/07 07:16:38;;;;;;;3.55;1.10;;;9.90;99.90;;;9.36;100.00;97301.09;5007937;28;20045;-65
2022/11/07 07:19:04;;;;;;;6.00;1.45;;;9.90;99.90;;;9.42;100.00;97307.06;5040125;23;20489;-45
2022/11/07 07:21:30;;;;;;;6.70;1.38;;;10.00;99.90;;;9.45;100.00;97318.34;5027487;28;20254;-43
2022/11/07 07:23:55;;;;;;;3.08;0.95;;;10.00;99.90;;;9.45;100.00;97318.34;5030517;28;20728;-43
2022/11/07 07:26:21;;;;;;;3.00;1.15;;;10.00;99.90;;;9.46;100.00;97319.22;5025989;28;20028;-45
2022/11/07 07:28:47;;;;;;;3.72;1.10;;;10.00;99.90;;;9.46;100.00;97317.44;5025794;28;20033;-43
2022/11/07 07:31:13;;;;;;;2.65;1.10;;;10.00;99.90;;;9.46;100.00;97313.97;5021299;28;20056;-47
2022/11/07 07:33:46;;;;;;;3.50;1.27;;;10.00;99.90;;;9.48;100.00;97318.25;5021244;28;20141;-42
2022/11/07 07:36:13;;;;;;;5.10;1.60;;;10.10;99.90;;;9.53;100.00;97310.19;5030163;28;20471;-47
2022/11/07 07:38:39;;;;;;;4.00;1.20;;;10.10;99.90;;;9.58;100.00;97317.94;5023609;28;20039;-45
2022/11/07 07:41:05;;;;;;;5.22;1.42;;;10.10;99.90;;;9.66;100.00;97316.75;5027633;28;20054;-44
2022/11/07 07:43:31;;;;;;;3.55;1.42;;;10.20;99.90;;;9.73;100.00;97314.78;5021312;28;20059;-43
2022/11/07 07:45:59;;;;;;;4.15;1.48;;;10.30;99.90;;;9.76;100.00;97322.53;5023813;28;20484;-46
2022/11/07 07:48:26;;;;;;;3.42;1.17;;;10.30;99.90;;;9.83;100.00;97318.78;5021467;28;20036;-43
2022/11/07 07:50:52;;;;;;;3.35;1.35;;;10.40;99.90;;;9.94;100.00;97321.03;5023519;28;20627;-43
2022/11/07 07:53:18;;;;;;;4.70;1.50;;;10.50;99.90;;;10.02;100.00;97319.00;5027487;28;20365;-47
2022/11/07 07:55:43;;;;;;;2.53;1.40;;;10.60;99.90;;;10.18;100.00;97316.69;5024463;28;20033;-46
2022/11/07 07:58:10;;;;;;;2.40;0.95;;;10.70;99.90;;;10.35;100.00;97317.84;5031191;28;20071;-46
2022/11/07 08:00:37;;;;;;;3.85;1.20;;;10.90;99.90;;;10.48;100.00;97317.34;5021353;28;20044;-43
2022/11/07 08:03:06;;;;;;;7.22;1.48;;;11.00;99.90;;;10.61;100.00;97322.16;5026030;28;20033;-43
2022/11/07 08:05:31;;;;;;;6.38;1.25;;;11.20;99.90;;;10.76;100.00;97324.19;5018406;28;20043;-48
2022/11/07 08:07:57;;;;;;;2.88;1.00;;;11.30;99.90;;;10.87;100.00;97319.38;5025413;28;20029;-47
2022/11/07 08:10:23;;;;;;;2.53;1.02;;;11.40;99.90;;;11.00;100.00;97326.78;5028360;28;20436;-44
2022/11/07 08:12:51;;;;;;;2.85;1.35;;;11.60;99.90;;;11.14;100.00;97321.78;5029594;28;20064;-45
2022/11/07 08:15:18;;;;;;;4.55;1.50;;;11.70;99.90;;;11.25;100.00;97322.25;5017450;28;20642;-49
2022/11/07 08:17:45;;;;;;;6.38;1.42;;;11.80;99.90;;;11.34;100.00;97333.34;5027047;28;20033;-44
2022/11/07 08:20:15;;;;;;;4.07;1.30;;;11.90;99.90;;;11.40;100.00;97333.94;5030517;28;20415;-44
2022/11/07 08:22:41;;;;;;;2.95;1.20;;;12.00;99.90;;;11.33;100.00;97311.34;5029890;28;20484;-44
2022/11/07 08:25:09;;;;;;;5.63;1.40;;;12.00;99.90;;;11.48;100.00;97333.63;5023231;28;20041;-44
2022/11/07 08:27:36;;;;;;;6.93;1.45;;;12.00;99.90;;;11.52;100.00;97337.88;5030634;28;20100;-44
2022/11/07 08:30:05;;;;;;;3.75;1.48;;;12.00;99.90;;;11.51;100.00;97337.94;5033940;28;20033;-47
2022/11/07 08:32:31;;;;;;;5.30;1.60;;;12.10;99.90;;;11.49;100.00;97326.56;5031508;28;20029;-45
2022/11/07 08:34:56;;;;;;;4.43;1.10;;;12.10;99.90;;;11.52;100.00;97332.59;5032310;28;20558;-46
2022/11/07 08:37:22;;;;;;;4.95;1.63;;;12.10;99.90;;;11.46;100.00;97316.97;5033417;28;20061;-43
2022/11/07 08:39:48;;;;;;;4.43;1.40;;;12.10;99.90;;;11.48;100.00;97330.97;5029448;28;20025;-44
2022/11/07 08:42:14;;;;;;;4.68;1.38;;;12.10;99.90;;;11.50;100.00;97320.34;5030872;28;20029;-46
2022/11/07 08:44:40;;;;;;;5.22;1.85;;;12.10;99.90;;;11.57;100.00;97338.50;5031627;28;20025;-44
2022/11/07 08:47:06;;;;;;;2.95;1.13;;;12.20;99.90;;;11.56;100.00;97336.81;5030607;28;20385;-43
2022/11/07 08:49:32;;;;;;;4.30;1.20;;;12.20;99.90;;;11.56;100.00;97328.88;5029616;28;20041;-41
2022/11/07 08:51:58;;;;;;;4.80;1.30;;;12.20;99.90;;;11.72;100.00;97342.31;5030018;28;20539;-43
2022/11/07 08:54:29;;;;;;;3.92;1.23;;;12.30;99.90;;;11.89;100.00;97338.09;5027094;28;20052;-43
2022/11/07 08:56:55;;;;;;;6.03;1.20;;;12.40;99.90;;;11.98;100.00;97338.56;5026678;28;20067;-44
2022/11/07 08:59:21;;;;;;;7.22;1.40;;;12.50;99.90;;;12.08;100.00;97338.16;5018995;28;20291;-44
2022/11/07 09:01:47;;;;;;;3.75;1.20;;;12.60;99.90;;;12.22;100.00;97334.00;5023579;28;20248;-44
2022/11/07 09:04:13;;;;;;;6.57;1.42;;;12.70;99.90;;;12.26;100.00;97332.06;5022288;28;20063;-47
2022/11/07 09:06:39;;;;;;;4.13;1.08;;;12.80;99.90;;;12.31;100.00;97330.09;5022680;28;20029;-43
2022/11/07 09:09:04;;;;;;;3.22;1.02;;;12.80;99.90;;;12.35;100.00;97331.66;5022207;28;20327;-44
2022/11/07 09:11:30;;;;;;;5.85;1.42;;;12.80;99.90;;;12.38;100.00;97335.94;5025192;28;20033;-43
2022/11/07 09:13:56;;;;;;;3.30;1.10;;;12.90;99.90;;;12.37;100.00;97339.53;5025975;28;20043;-44
2022/11/07 09:16:22;;;;;;;2.78;1.10;;;12.90;99.90;;;12.35;100.00;97342.22;5029847;28;20299;-44
2022/11/07 09:18:50;;;;;;;6.10;1.15;;;12.90;99.90;;;12.46;100.00;97352.31;5028204;28;20036;-43
2022/11/07 09:21:16;;;;;;;3.60;0.98;;;13.00;99.90;;;12.49;100.00;97349.56;5028197;28;20037;-45
2022/11/07 09:23:42;;;;;;;4.20;1.50;;;13.10;99.90;;;12.51;100.00;97352.13;5034074;28;20122;-47
2022/11/07 09:26:08;;;;;;;3.00;1.30;;;13.10;99.90;;;12.62;100.00;97351.66;5032411;28;20029;-44
2022/11/07 09:28:34;;;;;;;4.00;1.40;;;13.10;99.90;;;12.60;100.00;97343.78;5030800;28;20037;-46
2022/11/07 09:31:02;;;;;;;5.05;1.50;;;13.20;99.90;;;12.68;100.00;97352.19;5026355;28;20024;-43
2022/11/07 09:33:28;;;;;;;4.70;1.20;;;13.30;99.90;;;12.73;100.00;97357.28;5027194;28;20332;-44
2022/11/07 09:35:58;;;;;;;4.32;1.10;;;13.20;99.90;;;12.75;100.00;97366.84;5029852;28;20033;-47
2022/11/07 09:38:24;;;;;;;2.95;1.10;;;13.30;99.90;;;12.78;100.00;97365.88;5033880;28;20040;-46
2022/11/07 09:41:19;;;;;;;4.28;1.20;;;13.30;99.90;;;12.77;100.00;97370.28;5030571;28;20028;-43
2022/11/07 09:44:23;;;;;;;5.35;1.20;;;13.40;99.90;;;12.87;100.00;97370.75;5031766;28;20541;-48
2022/11/07 09:47:09;;;;;;;6.68;1.27;;;13.40;99.90;;;12.93;100.00;97372.25;5025885;28;20025;-47
2022/11/07 09:50:09;;;;;;;4.05;1.30;;;13.50;99.90;;;12.99;100.00;97374.59;5031765;28;20104;-45
2022/11/07 09:52:58;;;;;;;3.08;1.35;;;13.50;99.90;;;12.98;100.00;97368.44;5031881;28;20044;-40
2022/11/07 09:55:52;;;;;;;5.15;1.40;;;13.50;99.90;;;13.06;100.00;97364.56;5028616;28;20745;-47
2022/11/07 09:58:26;;;;;;;3.88;1.23;;;13.60;99.90;;;13.06;100.00;97360.13;5023326;28;20032;-47
2022/11/07 10:00:56;;;;;;;4.60;1.10;;;13.60;99.90;;;13.12;100.00;97364.28;5013377;28;20078;-45
2022/11/07 10:03:22;;;;;;;5.03;1.45;;;13.60;99.90;;;13.09;100.00;97365.28;5021850;28;20139;-44
2022/11/07 10:06:05;;;;;;;4.57;1.33;;;13.70;99.90;;;13.05;100.00;97336.41;5027010;28;20044;-44
2022/11/07 10:08:51;;;;;;;8.80;1.38;;;13.70;99.90;;;13.17;100.00;97356.97;5024671;28;20029;-45
2022/11/07 10:11:59;;;;;;;5.32;1.25;;;13.80;99.90;;;13.24;100.00;97362.84;5031848;28;20021;-42
2022/11/07 10:15:05;;;;;;;2.08;0.93;;;13.80;99.90;;;13.39;100.00;97367.44;5029042;28;20044;-46
2022/11/07 10:17:52;;;;;;;6.13;1.10;;;13.90;99.90;;;13.50;100.00;97361.59;5034199;28;20207;-47
2022/11/07 10:20:57;;;;;;;5.93;1.20;;;14.00;99.90;;;13.61;100.00;97367.22;5032037;28;20043;-47
2022/11/07 10:24:03;;;;;;;3.35;1.17;;;14.10;99.90;;;13.76;100.00;97365.59;5032927;28;20037;-48
2022/11/07 10:26:30;;;;;;;4.13;1.30;;;14.20;99.90;;;13.90;100.00;97370.19;4977584;28;20564;-46
2022/11/07 10:29:01;;;;;;;4.40;1.42;;;14.40;99.90;;;14.00;100.00;97358.19;5022179;28;20048;-47
2022/11/07 10:31:35;;;;;;;3.15;1.27;;;14.50;99.90;;;14.12;100.00;97357.56;5033887;28;20051;-44
2022/11/07 10:34:19;;;;;;;7.82;2.15;;;14.60;99.90;;;14.24;100.00;97358.72;5033207;28;20406;-45
2022/11/07 10:36:45;;;;;;;2.50;1.30;;;14.70;99.90;;;14.28;100.00;97365.59;5032897;28;20548;-45
2022/11/07 10:39:15;;;;;;;5.10;1.35;;;14.80;99.90;;;14.30;100.00;97347.78;5034092;28;20123;-46
2022/11/07 10:41:47;;;;;;;2.90;1.17;;;14.80;99.90;;;14.40;100.00;97350.81;5034141;28;20048;-45
2022/11/07 10:44:23;;;;;;;3.28;1.17;;;14.90;99.90;;;14.43;100.00;97352.44;5032964;28;20252;-44
2022/11/07 10:46:49;;;;;;;4.13;1.10;;;15.00;99.90;;;14.42;100.00;97348.06;5033143;28;20034;-42
2022/11/07 10:49:22;;;;;;;5.82;1.40;;;15.00;99.90;;;14.42;99.60;97342.75;5034220;28;20029;-46